sensor_id;sensor_type;location;lat;lon;timestamp;temperature;humidity
6379;DHT22;3222;48.858;10.128;2023-04-15T00:01:20;5.90;99.90
6379;DHT22;3222;48.858;10.128;2023-04-15T00:03:50;5.90;99.90
6379;DHT22;3222;48.858;10.128;2023-04-15T00:06:17;5.90;99.90
6379;DHT22;3222;48.858;10.128;2023-04-15T00:08:44;5.90;99.90
6379;DHT22;3222;48.858;10.128;2023-04-15T00:11:10;5.90;99.90
6379;DHT22;3222;48.858;10.128;2023-04-15T00:13:37;5.90;99.90
6379;DHT22;3222;48.858;10.128;2023-04-15T00:16:05;5.90;99.90
6379;DHT22;3222;48.858;10.128;2023-04-15T00:18:31;5.90;99.90
6379;DHT22;3222;48.858;10.128;2023-04-15T00:20:57;5.90;99.90
6379;DHT22;3222;48.858;10.128;2023-04-15T00:23:23;5.90;99.90
6379;DHT22;3222;48.858;10.128;2023-04-15T00:25:49;5.90;99.90
6379;DHT22;3222;48.858;10.128;2023-04-15T00:28:15;5.90;99.90
6379;DHT22;3222;48.858;10.128;2023-04-15T00:30:41;5.90;99.90
6379;DHT22;3222;48.858;10.128;2023-04-15T00:33:07;5.90;99.90
6379;DHT22;3222;48.858;10.128;2023-04-15T00:35:33;5.90;99.90
6379;DHT22;3222;48.858;10.128;2023-04-15T00:38:00;5.90;99.90
6379;DHT22;3222;48.858;10.128;2023-04-15T00:40:25;5.90;99.90
6379;DHT22;3222;48.858;10.128;2023-04-15T00:42:52;5.80;99.90
6379;DHT22;3222;48.858;10.128;2023-04-15T00:45:18;5.80;99.90
6379;DHT22;3222;48.858;10.128;2023-04-15T00:47:44;5.80;99.90
6379;DHT22;3222;48.858;10.128;2023-04-15T00:50:11;5.80;99.90
6379;DHT22;3222;48.858;10.128;2023-04-15T00:52:38;5.80;99.90
6379;DHT22;3222;48.858;10.128;2023-04-15T00:55:04;5.80;99.90
6379;DHT22;3222;48.858;10.128;2023-04-15T00:57:30;5.80;99.90
6379;DHT22;3222;48.858;10.128;2023-04-15T00:59:57;5.80;99.90
6379;DHT22;3222;48.858;10.128;2023-04-15T01:02:23;5.80;99.90
6379;DHT22;3222;48.858;10.128;2023-04-15T01:04:48;5.70;99.90
6379;DHT22;3222;48.858;10.128;2023-04-15T01:07:15;5.70;99.90
6379;DHT22;3222;48.858;10.128;2023-04-15T01:09:42;5.70;99.90
6379;DHT22;3222;48.858;10.128;2023-04-15T01:12:09;5.70;99.90
6379;DHT22;3222;48.858;10.128;2023-04-15T01:14:36;5.60;99.90
6379;DHT22;3222;48.858;10.128;2023-04-15T01:17:02;5.60;99.90
6379;DHT22;3222;48.858;10.128;2023-04-15T01:19:28;5.60;99.90
6379;DHT22;3222;48.858;10.128;2023-04-15T01:21:54;5.60;99.90
6379;DHT22;3222;48.858;10.128;2023-04-15T01:24:20;5.60;99.90
6379;DHT22;3222;48.858;10.128;2023-04-15T01:26:45;5.60;99.90
6379;DHT22;3222;48.858;10.128;2023-04-15T01:29:12;5.60;99.90
6379;DHT22;3222;48.858;10.128;2023-04-15T01:31:38;5.50;99.90
6379;DHT22;3222;48.858;10.128;2023-04-15T01:34:03;5.50;99.90
6379;DHT22;3222;48.858;10.128;2023-04-15T01:36:29;5.40;99.90
6379;DHT22;3222;48.858;10.128;2023-04-15T01:38:56;5.40;99.90
6379;DHT22;3222;48.858;10.128;2023-04-15T01:41:26;5.40;99.90
6379;DHT22;3222;48.858;10.128;2023-04-15T01:43:52;5.40;99.90
6379;DHT22;3222;48.858;10.128;2023-04-15T01:46:18;5.40;99.90
6379;DHT22;3222;48.858;10.128;2023-04-15T01:48:43;5.40;99.90
6379;DHT22;3222;48.858;10.128;2023-04-15T01:51:09;5.40;99.90
6379;DHT22;3222;48.858;10.128;2023-04-15T01:53:35;5.30;99.90
6379;DHT22;3222;48.858;10.128;2023-04-15T01:56:01;5.30;99.90
6379;DHT22;3222;48.858;10.128;2023-04-15T01:58:27;5.30;99.90
6379;DHT22;3222;48.858;10.128;2023-04-15T02:00:53;5.30;99.90
6379;DHT22;3222;48.858;10.128;2023-04-15T02:03:19;5.30;99.90
6379;DHT22;3222;48.858;10.128;2023-04-15T02:05:44;5.30;99.90
6379;DHT22;3222;48.858;10.128;2023-04-15T02:08:10;5.40;99.90
6379;DHT22;3222;48.858;10.128;2023-04-15T02:10:37;5.40;99.90
6379;DHT22;3222;48.858;10.128;2023-04-15T02:13:04;5.40;99.90
6379;DHT22;3222;48.858;10.128;2023-04-15T02:15:29;5.40;99.90
6379;DHT22;3222;48.858;10.128;2023-04-15T02:17:55;5.40;99.90
6379;DHT22;3222;48.858;10.128;2023-04-15T02:20:21;5.40;99.90
6379;DHT22;3222;48.858;10.128;2023-04-15T02:22:48;5.30;99.90
6379;DHT22;3222;48.858;10.128;2023-04-15T02:25:14;5.30;99.90
6379;DHT22;3222;48.858;10.128;2023-04-15T02:27:41;5.30;99.90
6379;DHT22;3222;48.858;10.128;2023-04-15T02:30:09;5.30;99.90
6379;DHT22;3222;48.858;10.128;2023-04-15T02:32:34;5.30;99.90
6379;DHT22;3222;48.858;10.128;2023-04-15T02:35:06;5.30;99.90
6379;DHT22;3222;48.858;10.128;2023-04-15T02:37:32;5.40;99.90
6379;DHT22;3222;48.858;10.128;2023-04-15T02:40:01;5.40;99.90
6379;DHT22;3222;48.858;10.128;2023-04-15T02:42:28;5.40;99.90
6379;DHT22;3222;48.858;10.128;2023-04-15T02:44:55;5.30;99.90
6379;DHT22;3222;48.858;10.128;2023-04-15T02:47:24;5.30;99.90
6379;DHT22;3222;48.858;10.128;2023-04-15T02:49:51;5.30;99.90
6379;DHT22;3222;48.858;10.128;2023-04-15T02:52:16;5.40;99.90
6379;DHT22;3222;48.858;10.128;2023-04-15T02:54:42;5.30;99.90
6379;DHT22;3222;48.858;10.128;2023-04-15T02:57:08;5.30;99.90
6379;DHT22;3222;48.858;10.128;2023-04-15T02:59:35;5.30;99.90
6379;DHT22;3222;48.858;10.128;2023-04-15T03:02:00;5.30;99.90
6379;DHT22;3222;48.858;10.128;2023-04-15T03:04:26;5.30;99.90
6379;DHT22;3222;48.858;10.128;2023-04-15T03:06:54;5.30;99.90
6379;DHT22;3222;48.858;10.128;2023-04-15T03:09:21;5.30;99.90
6379;DHT22;3222;48.858;10.128;2023-04-15T03:11:47;5.30;99.90
6379;DHT22;3222;48.858;10.128;2023-04-15T03:14:12;5.30;99.90
6379;DHT22;3222;48.858;10.128;2023-04-15T03:16:42;5.30;99.90
6379;DHT22;3222;48.858;10.128;2023-04-15T03:19:08;5.30;99.90
6379;DHT22;3222;48.858;10.128;2023-04-15T03:21:34;5.30;99.90
6379;DHT22;3222;48.858;10.128;2023-04-15T03:23:59;5.30;99.90
6379;DHT22;3222;48.858;10.128;2023-04-15T03:26:26;5.30;99.90
6379;DHT22;3222;48.858;10.128;2023-04-15T03:28:53;5.30;99.90
6379;DHT22;3222;48.858;10.128;2023-04-15T03:31:19;5.30;99.90
6379;DHT22;3222;48.858;10.128;2023-04-15T03:33:45;5.30;99.90
6379;DHT22;3222;48.858;10.128;2023-04-15T03:36:11;5.30;99.90
6379;DHT22;3222;48.858;10.128;2023-04-15T03:38:37;5.30;99.90
6379;DHT22;3222;48.858;10.128;2023-04-15T03:41:03;5.30;99.90
6379;DHT22;3222;48.858;10.128;2023-04-15T03:43:28;5.40;99.90
6379;DHT22;3222;48.858;10.128;2023-04-15T03:45:54;5.30;99.90
6379;DHT22;3222;48.858;10.128;2023-04-15T03:48:20;5.30;99.90
6379;DHT22;3222;48.858;10.128;2023-04-15T03:50:46;5.30;99.90
6379;DHT22;3222;48.858;10.128;2023-04-15T03:53:11;5.30;99.90
6379;DHT22;3222;48.858;10.128;2023-04-15T03:55:37;5.30;99.90
6379;DHT22;3222;48.858;10.128;2023-04-15T03:58:03;5.30;99.90
6379;DHT22;3222;48.858;10.128;2023-04-15T04:00:28;5.30;99.90
6379;DHT22;3222;48.858;10.128;2023-04-15T04:02:54;5.30;99.90
6379;DHT22;3222;48.858;10.128;2023-04-15T04:05:19;5.30;99.90
6379;DHT22;3222;48.858;10.128;2023-04-15T04:07:45;5.30;99.90
6379;DHT22;3222;48.858;10.128;2023-04-15T04:10:11;5.30;99.90
6379;DHT22;3222;48.858;10.128;2023-04-15T04:12:37;5.30;99.90
6379;DHT22;3222;48.858;10.128;2023-04-15T04:15:03;5.20;99.90
6379;DHT22;3222;48.858;10.128;2023-04-15T04:17:29;5.30;99.90
6379;DHT22;3222;48.858;10.128;2023-04-15T04:19:55;5.20;99.90
6379;DHT22;3222;48.858;10.128;2023-04-15T04:22:24;5.20;99.90
6379;DHT22;3222;48.858;10.128;2023-04-15T04:24:50;5.20;99.90
6379;DHT22;3222;48.858;10.128;2023-04-15T04:27:16;5.20;99.90
6379;DHT22;3222;48.858;10.128;2023-04-15T04:29:42;5.20;99.90
6379;DHT22;3222;48.858;10.128;2023-04-15T04:32:07;5.20;99.90
6379;DHT22;3222;48.858;10.128;2023-04-15T04:34:33;5.20;99.90
6379;DHT22;3222;48.858;10.128;2023-04-15T04:36:59;5.20;99.90
6379;DHT22;3222;48.858;10.128;2023-04-15T04:39:25;5.20;99.90
6379;DHT22;3222;48.858;10.128;2023-04-15T04:41:50;5.20;99.90
6379;DHT22;3222;48.858;10.128;2023-04-15T04:44:19;5.10;99.90
6379;DHT22;3222;48.858;10.128;2023-04-15T04:46:45;5.10;99.90
6379;DHT22;3222;48.858;10.128;2023-04-15T04:49:10;5.10;99.90
6379;DHT22;3222;48.858;10.128;2023-04-15T04:51:36;5.20;99.90
6379;DHT22;3222;48.858;10.128;2023-04-15T04:54:03;5.20;99.90
6379;DHT22;3222;48.858;10.128;2023-04-15T04:56:28;5.20;99.90
6379;DHT22;3222;48.858;10.128;2023-04-15T04:58:54;5.20;99.90
6379;DHT22;3222;48.858;10.128;2023-04-15T05:01:20;5.20;99.90
6379;DHT22;3222;48.858;10.128;2023-04-15T05:03:45;5.20;99.90
6379;DHT22;3222;48.858;10.128;2023-04-15T05:06:11;5.20;99.90
6379;DHT22;3222;48.858;10.128;2023-04-15T05:08:37;5.20;99.90
6379;DHT22;3222;48.858;10.128;2023-04-15T05:11:03;5.20;99.90
6379;DHT22;3222;48.858;10.128;2023-04-15T05:13:29;5.30;99.90
6379;DHT22;3222;48.858;10.128;2023-04-15T05:15:55;5.30;99.90
6379;DHT22;3222;48.858;10.128;2023-04-15T05:18:21;5.30;99.90
6379;DHT22;3222;48.858;10.128;2023-04-15T05:20:46;5.30;99.90
6379;DHT22;3222;48.858;10.128;2023-04-15T05:23:14;5.30;99.90
6379;DHT22;3222;48.858;10.128;2023-04-15T05:25:40;5.30;99.90
6379;DHT22;3222;48.858;10.128;2023-04-15T05:28:06;5.30;99.90
6379;DHT22;3222;48.858;10.128;2023-04-15T05:30:32;5.30;99.90
6379;DHT22;3222;48.858;10.128;2023-04-15T05:32:58;5.40;99.90
6379;DHT22;3222;48.858;10.128;2023-04-15T05:35:24;5.30;99.90
6379;DHT22;3222;48.858;10.128;2023-04-15T05:37:50;5.30;99.90
6379;DHT22;3222;48.858;10.128;2023-04-15T05:40:15;5.30;99.90
6379;DHT22;3222;48.858;10.128;2023-04-15T05:42:41;5.30;99.90
6379;DHT22;3222;48.858;10.128;2023-04-15T05:45:07;5.30;99.90
6379;DHT22;3222;48.858;10.128;2023-04-15T05:47:37;5.30;99.90
6379;DHT22;3222;48.858;10.128;2023-04-15T05:50:03;5.30;99.90
6379;DHT22;3222;48.858;10.128;2023-04-15T05:52:30;5.50;99.90
6379;DHT22;3222;48.858;10.128;2023-04-15T05:54:56;5.60;99.90
6379;DHT22;3222;48.858;10.128;2023-04-15T05:57:21;5.60;99.90
6379;DHT22;3222;48.858;10.128;2023-04-15T05:59:47;5.60;99.90
6379;DHT22;3222;48.858;10.128;2023-04-15T06:02:13;5.60;99.90
6379;DHT22;3222;48.858;10.128;2023-04-15T06:04:39;5.60;99.90
6379;DHT22;3222;48.858;10.128;2023-04-15T06:07:05;5.60;99.90
6379;DHT22;3222;48.858;10.128;2023-04-15T06:09:31;5.90;99.90
6379;DHT22;3222;48.858;10.128;2023-04-15T06:11:57;6.00;99.90
6379;DHT22;3222;48.858;10.128;2023-04-15T06:14:23;5.90;99.90
6379;DHT22;3222;48.858;10.128;2023-04-15T06:16:49;5.90;99.90
6379;DHT22;3222;48.858;10.128;2023-04-15T06:19:15;5.80;99.90
6379;DHT22;3222;48.858;10.128;2023-04-15T06:21:40;5.90;99.90
6379;DHT22;3222;48.858;10.128;2023-04-15T06:24:06;5.90;99.90
6379;DHT22;3222;48.858;10.128;2023-04-15T06:26:32;5.90;99.90
6379;DHT22;3222;48.858;10.128;2023-04-15T06:28:57;5.80;99.90
6379;DHT22;3222;48.858;10.128;2023-04-15T06:31:23;6.00;99.90
6379;DHT22;3222;48.858;10.128;2023-04-15T06:33:49;6.00;99.90
6379;DHT22;3222;48.858;10.128;2023-04-15T06:36:15;6.20;99.90
6379;DHT22;3222;48.858;10.128;2023-04-15T06:38:40;6.00;99.90
6379;DHT22;3222;48.858;10.128;2023-04-15T06:41:06;6.10;99.90
6379;DHT22;3222;48.858;10.128;2023-04-15T06:43:32;6.10;99.90
6379;DHT22;3222;48.858;10.128;2023-04-15T06:45:58;6.10;99.90
6379;DHT22;3222;48.858;10.128;2023-04-15T06:48:23;6.00;99.90
6379;DHT22;3222;48.858;10.128;2023-04-15T06:50:49;6.10;99.90
6379;DHT22;3222;48.858;10.128;2023-04-15T06:53:15;6.10;99.90
6379;DHT22;3222;48.858;10.128;2023-04-15T06:55:41;6.20;99.90
6379;DHT22;3222;48.858;10.128;2023-04-15T06:58:06;6.00;99.90
6379;DHT22;3222;48.858;10.128;2023-04-15T07:00:32;5.90;99.90
6379;DHT22;3222;48.858;10.128;2023-04-15T07:02:59;6.00;99.90
6379;DHT22;3222;48.858;10.128;2023-04-15T07:05:28;6.00;99.90
6379;DHT22;3222;48.858;10.128;2023-04-15T07:07:57;6.10;99.90
6379;DHT22;3222;48.858;10.128;2023-04-15T07:10:23;6.00;99.90
6379;DHT22;3222;48.858;10.128;2023-04-15T07:12:49;6.00;99.90
6379;DHT22;3222;48.858;10.128;2023-04-15T07:15:15;6.00;99.90
6379;DHT22;3222;48.858;10.128;2023-04-15T07:17:41;6.10;99.90
6379;DHT22;3222;48.858;10.128;2023-04-15T07:20:10;6.20;99.90
6379;DHT22;3222;48.858;10.128;2023-04-15T07:22:39;6.20;99.90
6379;DHT22;3222;48.858;10.128;2023-04-15T07:25:05;6.20;99.90
6379;DHT22;3222;48.858;10.128;2023-04-15T07:27:32;6.20;99.90
6379;DHT22;3222;48.858;10.128;2023-04-15T07:29:57;6.20;99.90
6379;DHT22;3222;48.858;10.128;2023-04-15T07:32:23;6.20;99.90
6379;DHT22;3222;48.858;10.128;2023-04-15T07:34:49;6.20;99.90
6379;DHT22;3222;48.858;10.128;2023-04-15T07:37:14;6.30;99.90
6379;DHT22;3222;48.858;10.128;2023-04-15T07:39:40;6.20;99.90
6379;DHT22;3222;48.858;10.128;2023-04-15T07:42:07;6.40;99.90
6379;DHT22;3222;48.858;10.128;2023-04-15T07:44:33;6.40;99.90
6379;DHT22;3222;48.858;10.128;2023-04-15T07:46:58;6.40;99.90
6379;DHT22;3222;48.858;10.128;2023-04-15T07:49:24;6.40;99.90
6379;DHT22;3222;48.858;10.128;2023-04-15T07:51:50;6.40;99.90
6379;DHT22;3222;48.858;10.128;2023-04-15T07:54:15;6.40;99.90
6379;DHT22;3222;48.858;10.128;2023-04-15T07:56:41;6.70;99.90
6379;DHT22;3222;48.858;10.128;2023-04-15T07:59:07;6.60;99.90
6379;DHT22;3222;48.858;10.128;2023-04-15T08:01:34;6.60;99.90
6379;DHT22;3222;48.858;10.128;2023-04-15T08:04:00;6.50;99.90
6379;DHT22;3222;48.858;10.128;2023-04-15T08:06:26;6.50;99.90
6379;DHT22;3222;48.858;10.128;2023-04-15T08:08:53;6.50;99.90
6379;DHT22;3222;48.858;10.128;2023-04-15T08:11:19;6.40;99.90
6379;DHT22;3222;48.858;10.128;2023-04-15T08:13:46;6.50;99.90
6379;DHT22;3222;48.858;10.128;2023-04-15T08:16:20;6.40;99.90
6379;DHT22;3222;48.858;10.128;2023-04-15T08:18:47;6.40;99.90
6379;DHT22;3222;48.858;10.128;2023-04-15T08:21:13;6.40;99.90
6379;DHT22;3222;48.858;10.128;2023-04-15T08:23:40;6.40;99.90
6379;DHT22;3222;48.858;10.128;2023-04-15T08:26:05;6.50;99.90
6379;DHT22;3222;48.858;10.128;2023-04-15T08:28:32;6.50;99.90
6379;DHT22;3222;48.858;10.128;2023-04-15T08:30:57;6.50;99.90
6379;DHT22;3222;48.858;10.128;2023-04-15T08:33:23;6.60;99.90
6379;DHT22;3222;48.858;10.128;2023-04-15T08:35:49;6.60;99.90
6379;DHT22;3222;48.858;10.128;2023-04-15T08:38:15;6.60;99.90
6379;DHT22;3222;48.858;10.128;2023-04-15T08:40:44;6.60;99.90
6379;DHT22;3222;48.858;10.128;2023-04-15T08:43:27;6.60;99.90
6379;DHT22;3222;48.858;10.128;2023-04-15T08:45:54;6.60;99.90
6379;DHT22;3222;48.858;10.128;2023-04-15T08:48:21;6.70;99.90
6379;DHT22;3222;48.858;10.128;2023-04-15T08:50:49;6.70;99.90
6379;DHT22;3222;48.858;10.128;2023-04-15T08:53:15;6.70;99.90
6379;DHT22;3222;48.858;10.128;2023-04-15T08:55:44;6.70;99.90
6379;DHT22;3222;48.858;10.128;2023-04-15T08:58:13;6.70;99.90
6379;DHT22;3222;48.858;10.128;2023-04-15T09:00:40;6.70;99.90
6379;DHT22;3222;48.858;10.128;2023-04-15T09:03:07;6.70;99.90
6379;DHT22;3222;48.858;10.128;2023-04-15T09:05:34;6.80;99.90
6379;DHT22;3222;48.858;10.128;2023-04-15T09:08:01;6.70;99.90
6379;DHT22;3222;48.858;10.128;2023-04-15T09:10:27;6.70;99.90
6379;DHT22;3222;48.858;10.128;2023-04-15T09:12:54;6.70;99.90
6379;DHT22;3222;48.858;10.128;2023-04-15T09:15:20;6.80;99.90
6379;DHT22;3222;48.858;10.128;2023-04-15T09:17:46;6.80;99.90
6379;DHT22;3222;48.858;10.128;2023-04-15T09:20:14;6.80;99.90
6379;DHT22;3222;48.858;10.128;2023-04-15T09:22:41;6.90;99.90
6379;DHT22;3222;48.858;10.128;2023-04-15T09:25:25;6.90;99.90
6379;DHT22;3222;48.858;10.128;2023-04-15T09:30:19;7.00;99.90
6379;DHT22;3222;48.858;10.128;2023-04-15T09:35:21;7.10;99.90
6379;DHT22;3222;48.858;10.128;2023-04-15T09:37:51;7.10;99.90
6379;DHT22;3222;48.858;10.128;2023-04-15T09:40:40;7.20;99.90
6379;DHT22;3222;48.858;10.128;2023-04-15T09:43:07;7.30;99.90
6379;DHT22;3222;48.858;10.128;2023-04-15T09:45:34;7.20;99.90
6379;DHT22;3222;48.858;10.128;2023-04-15T09:48:22;7.20;99.90
6379;DHT22;3222;48.858;10.128;2023-04-15T09:50:49;7.20;99.90
6379;DHT22;3222;48.858;10.128;2023-04-15T09:53:19;7.30;99.90
6379;DHT22;3222;48.858;10.128;2023-04-15T09:55:49;7.30;99.90
6379;DHT22;3222;48.858;10.128;2023-04-15T10:00:47;7.40;99.90
6379;DHT22;3222;48.858;10.128;2023-04-15T10:03:27;7.40;99.90
6379;DHT22;3222;48.858;10.128;2023-04-15T10:05:55;7.40;99.90
6379;DHT22;3222;48.858;10.128;2023-04-15T10:08:22;7.50;99.90
6379;DHT22;3222;48.858;10.128;2023-04-15T10:10:50;7.70;99.90
6379;DHT22;3222;48.858;10.128;2023-04-15T10:13:21;7.80;99.90
6379;DHT22;3222;48.858;10.128;2023-04-15T10:15:59;7.80;99.90
6379;DHT22;3222;48.858;10.128;2023-04-15T10:18:27;7.80;99.90
6379;DHT22;3222;48.858;10.128;2023-04-15T10:20:54;7.90;99.90
6379;DHT22;3222;48.858;10.128;2023-04-15T10:23:21;7.90;99.90
6379;DHT22;3222;48.858;10.128;2023-04-15T10:25:48;7.90;99.90
6379;DHT22;3222;48.858;10.128;2023-04-15T10:28:15;7.90;99.90
6379;DHT22;3222;48.858;10.128;2023-04-15T10:30:42;7.90;99.90
6379;DHT22;3222;48.858;10.128;2023-04-15T10:33:08;7.90;99.90
6379;DHT22;3222;48.858;10.128;2023-04-15T10:35:35;8.00;99.90
6379;DHT22;3222;48.858;10.128;2023-04-15T10:38:02;8.00;99.90
6379;DHT22;3222;48.858;10.128;2023-04-15T10:40:31;8.00;99.90
6379;DHT22;3222;48.858;10.128;2023-04-15T10:42:59;8.00;99.90
6379;DHT22;3222;48.858;10.128;2023-04-15T10:45:27;7.90;99.90
6379;DHT22;3222;48.858;10.128;2023-04-15T10:47:56;7.90;99.90
6379;DHT22;3222;48.858;10.128;2023-04-15T10:50:25;8.10;99.90
6379;DHT22;3222;48.858;10.128;2023-04-15T10:52:52;8.10;99.90
6379;DHT22;3222;48.858;10.128;2023-04-15T10:55:20;8.10;99.90
6379;DHT22;3222;48.858;10.128;2023-04-15T10:57:46;8.10;99.90
6379;DHT22;3222;48.858;10.128;2023-04-15T11:00:17;8.20;99.90
6379;DHT22;3222;48.858;10.128;2023-04-15T11:02:54;8.10;99.90
6379;DHT22;3222;48.858;10.128;2023-04-15T11:08:10;8.10;99.90
6379;DHT22;3222;48.858;10.128;2023-04-15T11:13:02;8.20;99.90
6379;DHT22;3222;48.858;10.128;2023-04-15T11:15:42;8.20;99.90
6379;DHT22;3222;48.858;10.128;2023-04-15T11:20:43;8.30;99.90
6379;DHT22;3222;48.858;10.128;2023-04-15T11:23:13;8.40;99.90
6379;DHT22;3222;48.858;10.128;2023-04-15T11:25:39;8.30;99.90
6379;DHT22;3222;48.858;10.128;2023-04-15T11:28:05;8.40;99.90
6379;DHT22;3222;48.858;10.128;2023-04-15T11:30:36;8.40;99.90
6379;DHT22;3222;48.858;10.128;2023-04-15T11:33:04;8.40;99.90
6379;DHT22;3222;48.858;10.128;2023-04-15T11:35:30;8.40;99.90
6379;DHT22;3222;48.858;10.128;2023-04-15T11:37:56;8.40;99.90
6379;DHT22;3222;48.858;10.128;2023-04-15T11:40:25;8.40;99.90
6379;DHT22;3222;48.858;10.128;2023-04-15T11:43:11;8.60;99.90
6379;DHT22;3222;48.858;10.128;2023-04-15T11:45:46;8.60;99.90
6379;DHT22;3222;48.858;10.128;2023-04-15T11:48:13;8.70;99.90
6379;DHT22;3222;48.858;10.128;2023-04-15T11:50:39;8.70;99.90
6379;DHT22;3222;48.858;10.128;2023-04-15T11:53:07;8.70;99.90
6379;DHT22;3222;48.858;10.128;2023-04-15T11:55:43;8.70;99.90
6379;DHT22;3222;48.858;10.128;2023-04-15T11:58:23;8.80;99.90
6379;DHT22;3222;48.858;10.128;2023-04-15T12:00:57;8.80;99.90
6379;DHT22;3222;48.858;10.128;2023-04-15T12:03:24;8.90;99.90
6379;DHT22;3222;48.858;10.128;2023-04-15T12:08:50;8.90;99.90
6379;DHT22;3222;48.858;10.128;2023-04-15T12:11:18;9.00;99.90
6379;DHT22;3222;48.858;10.128;2023-04-15T12:13:46;8.90;99.90
6379;DHT22;3222;48.858;10.128;2023-04-15T12:16:16;8.90;99.90
6379;DHT22;3222;48.858;10.128;2023-04-15T12:18:44;9.00;99.90
6379;DHT22;3222;48.858;10.128;2023-04-15T12:21:10;8.90;99.90
6379;DHT22;3222;48.858;10.128;2023-04-15T12:23:47;9.00;99.90
6379;DHT22;3222;48.858;10.128;2023-04-15T12:26:14;9.00;99.90
6379;DHT22;3222;48.858;10.128;2023-04-15T12:28:40;9.00;99.90
6379;DHT22;3222;48.858;10.128;2023-04-15T12:31:10;9.00;99.90
6379;DHT22;3222;48.858;10.128;2023-04-15T12:33:37;8.90;99.90
6379;DHT22;3222;48.858;10.128;2023-04-15T12:36:04;9.00;99.90
6379;DHT22;3222;48.858;10.128;2023-04-15T12:38:30;8.90;99.90
6379;DHT22;3222;48.858;10.128;2023-04-15T12:40:57;8.90;99.90
6379;DHT22;3222;48.858;10.128;2023-04-15T12:43:23;8.80;99.90
6379;DHT22;3222;48.858;10.128;2023-04-15T12:45:49;8.80;99.90
6379;DHT22;3222;48.858;10.128;2023-04-15T12:48:14;8.90;99.90
6379;DHT22;3222;48.858;10.128;2023-04-15T12:50:40;8.90;99.90
6379;DHT22;3222;48.858;10.128;2023-04-15T12:53:06;8.90;99.90
6379;DHT22;3222;48.858;10.128;2023-04-15T12:55:32;8.90;99.90
6379;DHT22;3222;48.858;10.128;2023-04-15T12:57:57;8.90;99.90
6379;DHT22;3222;48.858;10.128;2023-04-15T13:00:23;9.00;99.90
6379;DHT22;3222;48.858;10.128;2023-04-15T13:02:49;8.90;99.90
6379;DHT22;3222;48.858;10.128;2023-04-15T13:05:14;8.80;99.90
6379;DHT22;3222;48.858;10.128;2023-04-15T13:07:41;8.90;99.90
6379;DHT22;3222;48.858;10.128;2023-04-15T13:10:07;8.80;99.90
6379;DHT22;3222;48.858;10.128;2023-04-15T13:12:33;8.80;99.90
6379;DHT22;3222;48.858;10.128;2023-04-15T13:15:04;8.80;99.90
6379;DHT22;3222;48.858;10.128;2023-04-15T13:17:30;8.80;99.90
6379;DHT22;3222;48.858;10.128;2023-04-15T13:19:56;8.80;99.90
6379;DHT22;3222;48.858;10.128;2023-04-15T13:22:22;8.80;99.90
6379;DHT22;3222;48.858;10.128;2023-04-15T13:24:47;8.70;99.90
6379;DHT22;3222;48.858;10.128;2023-04-15T13:27:14;8.70;99.90
6379;DHT22;3222;48.858;10.128;2023-04-15T13:29:39;8.70;99.90
6379;DHT22;3222;48.858;10.128;2023-04-15T13:32:05;8.60;99.90
6379;DHT22;3222;48.858;10.128;2023-04-15T13:34:31;8.70;99.90
6379;DHT22;3222;48.858;10.128;2023-04-15T13:36:57;8.70;99.90
6379;DHT22;3222;48.858;10.128;2023-04-15T13:39:22;8.70;99.90
6379;DHT22;3222;48.858;10.128;2023-04-15T13:41:48;8.80;99.90
6379;DHT22;3222;48.858;10.128;2023-04-15T13:44:14;8.70;99.90
6379;DHT22;3222;48.858;10.128;2023-04-15T13:46:40;8.70;99.90
6379;DHT22;3222;48.858;10.128;2023-04-15T13:49:08;8.70;99.90
6379;DHT22;3222;48.858;10.128;2023-04-15T13:51:34;8.60;99.90
6379;DHT22;3222;48.858;10.128;2023-04-15T13:54:01;8.70;99.90
6379;DHT22;3222;48.858;10.128;2023-04-15T13:56:27;8.70;99.90
6379;DHT22;3222;48.858;10.128;2023-04-15T13:58:53;8.70;99.90
6379;DHT22;3222;48.858;10.128;2023-04-15T14:01:23;8.70;99.90
6379;DHT22;3222;48.858;10.128;2023-04-15T14:03:49;8.70;99.90
6379;DHT22;3222;48.858;10.128;2023-04-15T14:06:15;8.60;99.90
6379;DHT22;3222;48.858;10.128;2023-04-15T14:08:41;8.60;99.90
6379;DHT22;3222;48.858;10.128;2023-04-15T14:11:07;8.60;99.90
6379;DHT22;3222;48.858;10.128;2023-04-15T14:13:33;8.60;99.90
6379;DHT22;3222;48.858;10.128;2023-04-15T14:15:58;8.70;99.90
6379;DHT22;3222;48.858;10.128;2023-04-15T14:18:25;8.60;99.90
6379;DHT22;3222;48.858;10.128;2023-04-15T14:20:50;8.70;99.90
6379;DHT22;3222;48.858;10.128;2023-04-15T14:23:16;8.60;99.90
6379;DHT22;3222;48.858;10.128;2023-04-15T14:25:42;8.60;99.90
6379;DHT22;3222;48.858;10.128;2023-04-15T14:28:07;8.60;99.90
6379;DHT22;3222;48.858;10.128;2023-04-15T14:30:33;8.60;99.90
6379;DHT22;3222;48.858;10.128;2023-04-15T14:32:59;8.50;99.90
6379;DHT22;3222;48.858;10.128;2023-04-15T14:35:25;8.50;99.90
6379;DHT22;3222;48.858;10.128;2023-04-15T14:37:54;8.40;99.90
6379;DHT22;3222;48.858;10.128;2023-04-15T14:40:21;8.40;99.90
6379;DHT22;3222;48.858;10.128;2023-04-15T14:42:46;8.50;99.90
6379;DHT22;3222;48.858;10.128;2023-04-15T14:45:12;8.50;99.90
6379;DHT22;3222;48.858;10.128;2023-04-15T14:47:38;8.50;99.90
6379;DHT22;3222;48.858;10.128;2023-04-15T14:50:04;8.60;99.90
6379;DHT22;3222;48.858;10.128;2023-04-15T14:52:30;8.60;99.90
6379;DHT22;3222;48.858;10.128;2023-04-15T14:55:06;8.60;99.90
6379;DHT22;3222;48.858;10.128;2023-04-15T14:57:32;8.50;99.90
6379;DHT22;3222;48.858;10.128;2023-04-15T14:59:58;8.50;99.90
6379;DHT22;3222;48.858;10.128;2023-04-15T15:02:23;8.60;99.90
6379;DHT22;3222;48.858;10.128;2023-04-15T15:04:49;8.60;99.90
6379;DHT22;3222;48.858;10.128;2023-04-15T15:07:15;8.50;99.90
6379;DHT22;3222;48.858;10.128;2023-04-15T15:09:41;8.50;99.90
6379;DHT22;3222;48.858;10.128;2023-04-15T15:12:06;8.50;99.90
6379;DHT22;3222;48.858;10.128;2023-04-15T15:14:32;8.50;99.90
6379;DHT22;3222;48.858;10.128;2023-04-15T15:17:00;8.50;99.90
6379;DHT22;3222;48.858;10.128;2023-04-15T15:19:26;8.50;99.90
6379;DHT22;3222;48.858;10.128;2023-04-15T15:21:51;8.50;99.90
6379;DHT22;3222;48.858;10.128;2023-04-15T15:24:17;8.40;99.90
6379;DHT22;3222;48.858;10.128;2023-04-15T15:26:42;8.40;99.90
6379;DHT22;3222;48.858;10.128;2023-04-15T15:29:08;8.40;99.90
6379;DHT22;3222;48.858;10.128;2023-04-15T15:31:34;8.40;99.90
6379;DHT22;3222;48.858;10.128;2023-04-15T15:34:00;8.40;99.90
6379;DHT22;3222;48.858;10.128;2023-04-15T15:36:25;8.40;99.90
6379;DHT22;3222;48.858;10.128;2023-04-15T15:38:52;8.40;99.90
6379;DHT22;3222;48.858;10.128;2023-04-15T15:41:17;8.40;99.90
6379;DHT22;3222;48.858;10.128;2023-04-15T15:43:43;8.30;99.90
6379;DHT22;3222;48.858;10.128;2023-04-15T15:46:09;8.30;99.90
6379;DHT22;3222;48.858;10.128;2023-04-15T15:48:34;8.30;99.90
6379;DHT22;3222;48.858;10.128;2023-04-15T15:51:00;8.30;99.90
6379;DHT22;3222;48.858;10.128;2023-04-15T15:53:26;8.30;99.90
6379;DHT22;3222;48.858;10.128;2023-04-15T15:55:52;8.30;99.90
6379;DHT22;3222;48.858;10.128;2023-04-15T15:58:17;8.30;99.90
6379;DHT22;3222;48.858;10.128;2023-04-15T16:00:43;8.30;99.90
6379;DHT22;3222;48.858;10.128;2023-04-15T16:03:08;8.40;99.90
6379;DHT22;3222;48.858;10.128;2023-04-15T16:05:35;8.30;99.90
6379;DHT22;3222;48.858;10.128;2023-04-15T16:08:01;8.20;99.90
6379;DHT22;3222;48.858;10.128;2023-04-15T16:10:27;8.20;99.90
6379;DHT22;3222;48.858;10.128;2023-04-15T16:12:53;8.20;99.90
6379;DHT22;3222;48.858;10.128;2023-04-15T16:15:18;8.20;99.90
6379;DHT22;3222;48.858;10.128;2023-04-15T16:17:44;8.10;99.90